Terminal Aerodrome Forecast
Issued by NWS

Home | Current Version | Previous Version | Text Only | Print | Product List | Glossary On
Versions: 1 2 3 4 5 6 7 8 9 10 11 12 13
103
FTUS45 KTFX 171152 AAA
TAFLWT
TAF AMD
KLWT 171152Z 1712/1812 14008KT P6SM SCT150 BKN200
     FM171600 23015G22KT P6SM SCT150 BKN200
     FM180400 21013G21KT P6SM SCT150 BKN200=

USA.gov is the U.S. government's official web portal to all federal, state and local government web resources and services.